sensor_id;sensor_type;location;lat;lon;timestamp;pressure;altitude;pressure_sealevel;temperature;humidity
51603;BME280;37954;51.980;5.850;2023-05-11T00:01:48;101094.81;;;14.95;86.32
51603;BME280;37954;51.980;5.850;2023-05-11T00:06:00;101095.66;;;14.96;86.72
51603;BME280;37954;51.980;5.850;2023-05-11T00:10:11;101095.88;;;14.94;86.88
51603;BME280;37954;51.980;5.850;2023-05-11T00:14:23;101093.19;;;14.94;86.76
51603;BME280;37954;51.980;5.850;2023-05-11T00:18:35;101090.72;;;14.93;86.91
51603;BME280;37954;51.980;5.850;2023-05-11T00:22:46;101090.66;;;14.88;86.91
51603;BME280;37954;51.980;5.850;2023-05-11T00:26:58;101092.78;;;14.86;87.24
51603;BME280;37954;51.980;5.850;2023-05-11T00:31:10;101085.47;;;14.86;87.51
51603;BME280;37954;51.980;5.850;2023-05-11T00:35:22;101071.38;;;14.84;87.37
51603;BME280;37954;51.980;5.850;2023-05-11T00:39:34;101070.22;;;14.80;87.69
51603;BME280;37954;51.980;5.850;2023-05-11T00:43:50;101079.88;;;14.76;87.65
51603;BME280;37954;51.980;5.850;2023-05-11T00:48:02;101078.47;;;14.74;87.60
51603;BME280;37954;51.980;5.850;2023-05-11T00:52:14;101076.75;;;14.68;87.58
51603;BME280;37954;51.980;5.850;2023-05-11T00:56:25;101068.88;;;14.66;87.83
51603;BME280;37954;51.980;5.850;2023-05-11T01:00:37;101076.66;;;14.62;87.71
51603;BME280;37954;51.980;5.850;2023-05-11T01:04:49;101084.16;;;14.60;87.78
51603;BME280;37954;51.980;5.850;2023-05-11T01:09:05;101083.00;;;14.56;87.88
51603;BME280;37954;51.980;5.850;2023-05-11T01:17:57;101084.06;;;14.55;88.18
51603;BME280;37954;51.980;5.850;2023-05-11T01:27:13;101076.28;;;14.59;88.50
51603;BME280;37954;51.980;5.850;2023-05-11T01:31:33;101082.63;;;14.65;88.78
51603;BME280;37954;51.980;5.850;2023-05-11T01:35:49;101085.69;;;14.68;88.96
51603;BME280;37954;51.980;5.850;2023-05-11T01:40:07;101086.56;;;14.74;88.87
51603;BME280;37954;51.980;5.850;2023-05-11T01:44:21;101087.91;;;14.71;88.99
51603;BME280;37954;51.980;5.850;2023-05-11T01:48:38;101088.38;;;14.68;89.06
51603;BME280;37954;51.980;5.850;2023-05-11T01:52:51;101103.56;;;14.69;88.87
51603;BME280;37954;51.980;5.850;2023-05-11T01:57:04;101092.72;;;14.69;89.01
51603;BME280;37954;51.980;5.850;2023-05-11T02:01:16;101103.03;;;14.72;89.13
51603;BME280;37954;51.980;5.850;2023-05-11T02:05:30;101107.97;;;14.75;89.31
51603;BME280;37954;51.980;5.850;2023-05-11T02:09:43;101106.84;;;14.71;89.38
51603;BME280;37954;51.980;5.850;2023-05-11T02:13:56;101111.50;;;14.76;89.39
51603;BME280;37954;51.980;5.850;2023-05-11T02:18:11;101112.25;;;14.71;89.54
51603;BME280;37954;51.980;5.850;2023-05-11T02:22:24;101096.16;;;14.65;89.68
51603;BME280;37954;51.980;5.850;2023-05-11T02:26:36;101106.03;;;14.59;90.06
51603;BME280;37954;51.980;5.850;2023-05-11T02:30:52;101112.03;;;14.61;89.98
51603;BME280;37954;51.980;5.850;2023-05-11T02:35:12;101112.38;;;14.65;89.92
51603;BME280;37954;51.980;5.850;2023-05-11T02:39:32;101103.91;;;14.61;90.25
51603;BME280;37954;51.980;5.850;2023-05-11T02:43:50;101114.50;;;14.62;90.13
51603;BME280;37954;51.980;5.850;2023-05-11T02:48:07;101103.81;;;14.56;90.05
51603;BME280;37954;51.980;5.850;2023-05-11T02:52:21;101112.75;;;14.56;90.20
51603;BME280;37954;51.980;5.850;2023-05-11T02:56:34;101089.75;;;14.54;90.15
51603;BME280;37954;51.980;5.850;2023-05-11T03:00:46;101092.69;;;14.52;90.15
51603;BME280;37954;51.980;5.850;2023-05-11T03:04:58;101095.88;;;14.49;90.14
51603;BME280;37954;51.980;5.850;2023-05-11T03:09:10;101092.22;;;14.44;90.20
51603;BME280;37954;51.980;5.850;2023-05-11T03:13:28;101108.09;;;14.40;90.53
51603;BME280;37954;51.980;5.850;2023-05-11T03:17:42;101089.53;;;14.32;90.27
51603;BME280;37954;51.980;5.850;2023-05-11T03:21:57;101089.28;;;14.34;90.49
51603;BME280;37954;51.980;5.850;2023-05-11T03:26:11;101094.69;;;14.34;90.67
51603;BME280;37954;51.980;5.850;2023-05-11T03:30:25;101092.59;;;14.36;90.74
51603;BME280;37954;51.980;5.850;2023-05-11T03:34:40;101096.25;;;14.29;91.29
51603;BME280;37954;51.980;5.850;2023-05-11T03:38:56;101087.78;;;14.26;91.34
51603;BME280;37954;51.980;5.850;2023-05-11T03:43:16;101091.31;;;14.26;91.39
51603;BME280;37954;51.980;5.850;2023-05-11T03:47:32;101092.94;;;14.27;91.01
51603;BME280;37954;51.980;5.850;2023-05-11T03:51:45;101074.50;;;14.24;91.01
51603;BME280;37954;51.980;5.850;2023-05-11T03:55:57;101079.31;;;14.22;91.01
51603;BME280;37954;51.980;5.850;2023-05-11T04:00:09;101085.69;;;14.16;90.98
51603;BME280;37954;51.980;5.850;2023-05-11T04:04:29;101098.63;;;14.14;91.27
51603;BME280;37954;51.980;5.850;2023-05-11T04:08:43;101097.09;;;14.18;91.45
51603;BME280;37954;51.980;5.850;2023-05-11T04:12:54;101093.22;;;14.14;91.15
51603;BME280;37954;51.980;5.850;2023-05-11T04:17:06;101097.09;;;14.18;91.51
51603;BME280;37954;51.980;5.850;2023-05-11T04:21:18;101101.44;;;14.19;91.86
51603;BME280;37954;51.980;5.850;2023-05-11T04:25:29;101100.13;;;14.22;92.14
51603;BME280;37954;51.980;5.850;2023-05-11T04:29:41;101104.81;;;14.26;91.97
51603;BME280;37954;51.980;5.850;2023-05-11T04:33:53;101117.63;;;14.31;91.98
51603;BME280;37954;51.980;5.850;2023-05-11T04:38:05;101115.03;;;14.36;91.88
51603;BME280;37954;51.980;5.850;2023-05-11T04:42:17;101113.50;;;14.40;92.02
51603;BME280;37954;51.980;5.850;2023-05-11T04:46:32;101120.75;;;14.40;91.83
51603;BME280;37954;51.980;5.850;2023-05-11T04:50:44;101122.78;;;14.44;92.06
51603;BME280;37954;51.980;5.850;2023-05-11T04:54:57;101127.84;;;14.41;91.81
51603;BME280;37954;51.980;5.850;2023-05-11T04:59:09;101133.13;;;14.47;91.46
51603;BME280;37954;51.980;5.850;2023-05-11T05:03:21;101126.88;;;14.47;91.82
51603;BME280;37954;51.980;5.850;2023-05-11T05:07:32;101134.28;;;14.51;91.86
51603;BME280;37954;51.980;5.850;2023-05-11T05:11:44;101141.09;;;14.54;91.81
51603;BME280;37954;51.980;5.850;2023-05-11T05:15:56;101129.13;;;14.50;91.78
51603;BME280;37954;51.980;5.850;2023-05-11T05:20:08;101135.13;;;14.52;91.79
51603;BME280;37954;51.980;5.850;2023-05-11T05:24:19;101136.41;;;14.49;91.93
51603;BME280;37954;51.980;5.850;2023-05-11T05:28:32;101147.22;;;14.49;91.63
51603;BME280;37954;51.980;5.850;2023-05-11T05:32:46;101147.34;;;14.54;91.79
51603;BME280;37954;51.980;5.850;2023-05-11T05:36:58;101149.69;;;14.51;91.84
51603;BME280;37954;51.980;5.850;2023-05-11T05:41:11;101157.88;;;14.56;91.76
51603;BME280;37954;51.980;5.850;2023-05-11T05:45:25;101156.00;;;14.56;91.78
51603;BME280;37954;51.980;5.850;2023-05-11T05:49:38;101158.00;;;14.61;91.72
51603;BME280;37954;51.980;5.850;2023-05-11T05:53:50;101168.91;;;14.66;91.75
51603;BME280;37954;51.980;5.850;2023-05-11T05:58:02;101171.00;;;14.76;91.74
51603;BME280;37954;51.980;5.850;2023-05-11T06:02:14;101162.41;;;14.79;91.60
51603;BME280;37954;51.980;5.850;2023-05-11T06:06:26;101173.69;;;14.87;91.35
51603;BME280;37954;51.980;5.850;2023-05-11T06:10:38;101187.97;;;15.00;91.23
51603;BME280;37954;51.980;5.850;2023-05-11T06:14:51;101185.38;;;15.05;90.74
51603;BME280;37954;51.980;5.850;2023-05-11T06:19:03;101182.75;;;15.10;90.45
51603;BME280;37954;51.980;5.850;2023-05-11T06:23:15;101187.94;;;15.28;90.54
51603;BME280;37954;51.980;5.850;2023-05-11T06:27:28;101188.47;;;15.42;90.02
51603;BME280;37954;51.980;5.850;2023-05-11T06:31:41;101184.84;;;15.64;89.82
51603;BME280;37954;51.980;5.850;2023-05-11T06:35:53;101183.19;;;15.80;89.34
51603;BME280;37954;51.980;5.850;2023-05-11T06:40:06;101192.69;;;15.99;88.83
51603;BME280;37954;51.980;5.850;2023-05-11T06:44:18;101180.84;;;16.22;88.31
51603;BME280;37954;51.980;5.850;2023-05-11T06:48:30;101181.97;;;16.87;87.86
51603;BME280;37954;51.980;5.850;2023-05-11T06:52:42;101177.44;;;18.15;85.68
51603;BME280;37954;51.980;5.850;2023-05-11T06:56:54;101181.00;;;18.68;84.38
51603;BME280;37954;51.980;5.850;2023-05-11T07:01:06;101186.41;;;18.63;80.67
51603;BME280;37954;51.980;5.850;2023-05-11T07:05:18;101183.03;;;18.46;78.99
51603;BME280;37954;51.980;5.850;2023-05-11T07:09:30;101187.88;;;18.38;77.36
51603;BME280;37954;51.980;5.850;2023-05-11T07:13:41;101183.16;;;18.66;77.76
51603;BME280;37954;51.980;5.850;2023-05-11T07:17:53;101189.69;;;18.75;76.75
51603;BME280;37954;51.980;5.850;2023-05-11T07:22:05;101190.97;;;18.57;75.24
51603;BME280;37954;51.980;5.850;2023-05-11T07:26:17;101187.84;;;18.28;75.27
51603;BME280;37954;51.980;5.850;2023-05-11T07:30:28;101206.72;;;18.08;75.42
51603;BME280;37954;51.980;5.850;2023-05-11T07:34:40;101212.16;;;18.08;75.38
51603;BME280;37954;51.980;5.850;2023-05-11T07:38:52;101212.22;;;18.13;75.38
51603;BME280;37954;51.980;5.850;2023-05-11T07:43:04;101215.25;;;18.22;75.32
51603;BME280;37954;51.980;5.850;2023-05-11T07:47:16;101208.22;;;18.26;75.25
51603;BME280;37954;51.980;5.850;2023-05-11T07:51:29;101200.03;;;18.73;75.36
51603;BME280;37954;51.980;5.850;2023-05-11T07:55:41;101201.78;;;19.09;74.19
51603;BME280;37954;51.980;5.850;2023-05-11T07:59:52;101205.91;;;19.17;72.73
51603;BME280;37954;51.980;5.850;2023-05-11T08:04:04;101207.53;;;19.23;71.75
51603;BME280;37954;51.980;5.850;2023-05-11T08:08:16;101204.03;;;19.38;70.70
51603;BME280;37954;51.980;5.850;2023-05-11T08:12:27;101207.66;;;19.89;70.28
51603;BME280;37954;51.980;5.850;2023-05-11T08:16:39;101207.75;;;20.69;68.67
51603;BME280;37954;51.980;5.850;2023-05-11T08:20:51;101226.25;;;20.87;66.04
51603;BME280;37954;51.980;5.850;2023-05-11T08:25:03;101226.25;;;20.82;65.80
51603;BME280;37954;51.980;5.850;2023-05-11T08:29:16;101224.19;;;20.54;64.80
51603;BME280;37954;51.980;5.850;2023-05-11T08:33:27;101227.78;;;20.24;64.34
51603;BME280;37954;51.980;5.850;2023-05-11T08:37:42;101220.16;;;20.15;64.64
51603;BME280;37954;51.980;5.850;2023-05-11T08:41:57;101222.28;;;20.44;64.29
51603;BME280;37954;51.980;5.850;2023-05-11T08:46:10;101219.44;;;21.73;64.88
51603;BME280;37954;51.980;5.850;2023-05-11T08:50:24;101215.66;;;22.79;62.00
51603;BME280;37954;51.980;5.850;2023-05-11T08:54:36;101215.56;;;23.97;58.01
51603;BME280;37954;51.980;5.850;2023-05-11T08:58:49;101209.13;;;25.03;54.00
51603;BME280;37954;51.980;5.850;2023-05-11T09:03:02;101209.75;;;26.02;51.54
51603;BME280;37954;51.980;5.850;2023-05-11T09:07:15;101204.72;;;26.66;49.64
51603;BME280;37954;51.980;5.850;2023-05-11T09:11:30;101207.59;;;26.53;48.19
51603;BME280;37954;51.980;5.850;2023-05-11T09:15:42;101212.03;;;25.56;46.79
51603;BME280;37954;51.980;5.850;2023-05-11T09:20:02;101213.22;;;24.50;47.35
51603;BME280;37954;51.980;5.850;2023-05-11T09:24:19;101203.47;;;23.47;48.49
51603;BME280;37954;51.980;5.850;2023-05-11T09:28:31;101208.97;;;22.67;50.21
51603;BME280;37954;51.980;5.850;2023-05-11T09:32:57;101212.72;;;21.94;51.64
51603;BME280;37954;51.980;5.850;2023-05-11T09:37:17;101211.69;;;21.51;53.47
51603;BME280;37954;51.980;5.850;2023-05-11T09:41:32;101216.31;;;21.06;54.78
51603;BME280;37954;51.980;5.850;2023-05-11T09:45:48;101218.66;;;20.69;56.14
51603;BME280;37954;51.980;5.850;2023-05-11T09:50:14;101214.94;;;20.29;57.64
51603;BME280;37954;51.980;5.850;2023-05-11T09:54:26;101211.72;;;20.02;58.99
51603;BME280;37954;51.980;5.850;2023-05-11T09:58:45;101218.00;;;19.87;59.68
51603;BME280;37954;51.980;5.850;2023-05-11T10:03:06;101219.09;;;19.66;60.47
51603;BME280;37954;51.980;5.850;2023-05-11T10:07:32;101212.50;;;19.46;60.75
51603;BME280;37954;51.980;5.850;2023-05-11T10:11:45;101214.66;;;19.39;61.33
51603;BME280;37954;51.980;5.850;2023-05-11T10:15:58;101219.31;;;19.39;62.18
51603;BME280;37954;51.980;5.850;2023-05-11T10:20:10;101220.91;;;19.25;62.67
51603;BME280;37954;51.980;5.850;2023-05-11T10:24:23;101220.09;;;19.19;63.17
51603;BME280;37954;51.980;5.850;2023-05-11T10:28:35;101217.59;;;19.07;63.35
51603;BME280;37954;51.980;5.850;2023-05-11T10:32:47;101211.59;;;19.10;64.18
51603;BME280;37954;51.980;5.850;2023-05-11T10:37:00;101211.91;;;19.19;64.05
51603;BME280;37954;51.980;5.850;2023-05-11T10:55:28;101216.81;;;19.27;64.32
51603;BME280;37954;51.980;5.850;2023-05-11T11:04:10;101229.63;;;19.27;65.57
51603;BME280;37954;51.980;5.850;2023-05-11T11:08:22;101229.59;;;19.11;65.65
51603;BME280;37954;51.980;5.850;2023-05-11T11:12:33;101202.53;;;18.80;65.83
51603;BME280;37954;51.980;5.850;2023-05-11T11:21:38;101230.56;;;18.80;67.47
51603;BME280;37954;51.980;5.850;2023-05-11T11:25:52;101232.41;;;18.64;67.77
51603;BME280;37954;51.980;5.850;2023-05-11T11:30:16;101238.00;;;18.48;68.51
51603;BME280;37954;51.980;5.850;2023-05-11T11:34:32;101234.38;;;18.32;68.77
51603;BME280;37954;51.980;5.850;2023-05-11T11:38:57;101234.59;;;18.25;69.66
51603;BME280;37954;51.980;5.850;2023-05-11T11:47:22;101222.53;;;18.11;71.22
51603;BME280;37954;51.980;5.850;2023-05-11T11:51:36;101223.03;;;18.08;72.09
51603;BME280;37954;51.980;5.850;2023-05-11T11:55:50;101234.19;;;18.06;72.84
51603;BME280;37954;51.980;5.850;2023-05-11T12:00:07;101223.31;;;18.06;73.19
51603;BME280;37954;51.980;5.850;2023-05-11T12:04:36;101219.50;;;18.07;73.18
51603;BME280;37954;51.980;5.850;2023-05-11T12:08:49;101220.31;;;18.08;73.67
51603;BME280;37954;51.980;5.850;2023-05-11T12:13:02;101217.34;;;18.09;73.64
51603;BME280;37954;51.980;5.850;2023-05-11T12:17:22;101221.97;;;18.09;73.82
51603;BME280;37954;51.980;5.850;2023-05-11T12:21:36;101210.72;;;17.95;73.77
51603;BME280;37954;51.980;5.850;2023-05-11T12:26:05;101211.81;;;17.94;73.88
51603;BME280;37954;51.980;5.850;2023-05-11T12:34:32;101202.88;;;17.99;74.25
51603;BME280;37954;51.980;5.850;2023-05-11T12:38:44;101215.50;;;18.20;74.30
51603;BME280;37954;51.980;5.850;2023-05-11T12:42:58;101224.03;;;18.34;74.37
51603;BME280;37954;51.980;5.850;2023-05-11T12:47:10;101220.50;;;18.33;74.69
51603;BME280;37954;51.980;5.850;2023-05-11T12:51:48;101205.00;;;18.34;75.48
51603;BME280;37954;51.980;5.850;2023-05-11T12:56:01;101211.28;;;18.39;75.48
51603;BME280;37954;51.980;5.850;2023-05-11T13:00:14;101207.47;;;18.40;75.74
51603;BME280;37954;51.980;5.850;2023-05-11T13:04:28;101203.38;;;18.38;76.50
51603;BME280;37954;51.980;5.850;2023-05-11T13:08:44;101205.38;;;18.53;76.70
51603;BME280;37954;51.980;5.850;2023-05-11T13:12:56;101200.28;;;18.61;76.79
51603;BME280;37954;51.980;5.850;2023-05-11T13:17:09;101196.78;;;18.76;76.56
51603;BME280;37954;51.980;5.850;2023-05-11T13:21:21;101196.25;;;18.79;76.76
51603;BME280;37954;51.980;5.850;2023-05-11T13:25:38;101205.03;;;18.96;76.22
51603;BME280;37954;51.980;5.850;2023-05-11T13:30:03;101199.59;;;19.06;76.14
51603;BME280;37954;51.980;5.850;2023-05-11T13:34:15;101201.53;;;19.11;75.93
51603;BME280;37954;51.980;5.850;2023-05-11T13:38:27;101186.03;;;19.17;75.51
51603;BME280;37954;51.980;5.850;2023-05-11T13:42:39;101193.13;;;19.28;74.99
51603;BME280;37954;51.980;5.850;2023-05-11T13:46:52;101156.88;;;19.17;74.82
51603;BME280;37954;51.980;5.850;2023-05-11T13:51:03;101197.28;;;19.51;74.18
51603;BME280;37954;51.980;5.850;2023-05-11T13:55:15;101180.06;;;19.45;73.58
51603;BME280;37954;51.980;5.850;2023-05-11T13:59:27;101194.00;;;19.59;72.57
51603;BME280;37954;51.980;5.850;2023-05-11T14:03:39;101162.69;;;19.56;72.43
51603;BME280;37954;51.980;5.850;2023-05-11T14:07:51;101184.72;;;19.85;70.94
51603;BME280;37954;51.980;5.850;2023-05-11T14:12:02;101193.44;;;20.02;70.00
51603;BME280;37954;51.980;5.850;2023-05-11T14:16:14;101166.16;;;19.97;68.97
51603;BME280;37954;51.980;5.850;2023-05-11T14:20:26;101187.41;;;20.21;68.51
51603;BME280;37954;51.980;5.850;2023-05-11T14:24:37;101193.41;;;20.38;67.30
51603;BME280;37954;51.980;5.850;2023-05-11T14:28:49;101150.00;;;20.26;67.38
51603;BME280;37954;51.980;5.850;2023-05-11T14:33:01;101167.69;;;20.44;67.03
51603;BME280;37954;51.980;5.850;2023-05-11T14:37:13;101186.78;;;20.59;67.09
51603;BME280;37954;51.980;5.850;2023-05-11T14:41:25;101157.31;;;20.51;66.61
51603;BME280;37954;51.980;5.850;2023-05-11T14:45:36;101187.00;;;20.68;66.17
51603;BME280;37954;51.980;5.850;2023-05-11T14:49:48;101175.88;;;20.54;65.39
51603;BME280;37954;51.980;5.850;2023-05-11T14:54:00;101178.59;;;20.54;65.41
51603;BME280;37954;51.980;5.850;2023-05-11T14:58:11;101185.97;;;20.54;65.59
51603;BME280;37954;51.980;5.850;2023-05-11T15:02:23;101179.19;;;20.41;65.58
51603;BME280;37954;51.980;5.850;2023-05-11T15:06:36;101182.44;;;20.48;66.06
51603;BME280;37954;51.980;5.850;2023-05-11T15:10:49;101181.34;;;20.49;66.37
51603;BME280;37954;51.980;5.850;2023-05-11T15:15:03;101189.78;;;20.58;66.53
51603;BME280;37954;51.980;5.850;2023-05-11T15:19:15;101188.16;;;20.52;66.55
51603;BME280;37954;51.980;5.850;2023-05-11T15:23:27;101200.72;;;20.47;66.99
51603;BME280;37954;51.980;5.850;2023-05-11T15:27:39;101195.56;;;20.36;66.92
51603;BME280;37954;51.980;5.850;2023-05-11T15:31:50;101192.88;;;20.26;66.82
51603;BME280;37954;51.980;5.850;2023-05-11T15:36:09;101199.09;;;20.26;67.20
51603;BME280;37954;51.980;5.850;2023-05-11T15:40:21;101191.25;;;19.99;67.37
51603;BME280;37954;51.980;5.850;2023-05-11T15:44:34;101204.66;;;19.91;67.82
51603;BME280;37954;51.980;5.850;2023-05-11T15:48:46;101214.38;;;19.21;64.99
51603;BME280;37954;51.980;5.850;2023-05-11T15:52:58;101218.03;;;18.79;64.99
51603;BME280;37954;51.980;5.850;2023-05-11T15:57:11;101230.66;;;18.48;66.03
51603;BME280;37954;51.980;5.850;2023-05-11T16:01:22;101225.03;;;18.23;67.21
51603;BME280;37954;51.980;5.850;2023-05-11T16:05:34;101230.16;;;17.77;69.30
51603;BME280;37954;51.980;5.850;2023-05-11T16:09:47;101221.38;;;17.43;71.57
51603;BME280;37954;51.980;5.850;2023-05-11T16:13:59;101225.03;;;17.27;72.38
51603;BME280;37954;51.980;5.850;2023-05-11T16:18:11;101223.47;;;17.09;74.33
51603;BME280;37954;51.980;5.850;2023-05-11T16:22:24;101211.63;;;16.93;75.59
51603;BME280;37954;51.980;5.850;2023-05-11T16:26:36;101217.41;;;16.80;76.01
51603;BME280;37954;51.980;5.850;2023-05-11T16:30:48;101227.72;;;16.78;77.50
51603;BME280;37954;51.980;5.850;2023-05-11T16:34:59;101225.53;;;16.75;78.34
51603;BME280;37954;51.980;5.850;2023-05-11T16:39:11;101223.72;;;16.64;78.41
51603;BME280;37954;51.980;5.850;2023-05-11T16:43:23;101211.56;;;16.50;79.26
51603;BME280;37954;51.980;5.850;2023-05-11T16:47:35;101206.34;;;16.43;79.95
51603;BME280;37954;51.980;5.850;2023-05-11T16:51:46;101219.38;;;16.46;80.27
51603;BME280;37954;51.980;5.850;2023-05-11T16:55:58;101206.84;;;16.40;80.59
51603;BME280;37954;51.980;5.850;2023-05-11T17:00:10;101201.19;;;16.42;80.97
51603;BME280;37954;51.980;5.850;2023-05-11T17:04:23;101214.03;;;16.51;80.55
51603;BME280;37954;51.980;5.850;2023-05-11T17:08:34;101214.38;;;16.55;81.04
51603;BME280;37954;51.980;5.850;2023-05-11T17:12:46;101223.94;;;16.62;81.26
51603;BME280;37954;51.980;5.850;2023-05-11T17:16:58;101213.38;;;16.61;81.11
51603;BME280;37954;51.980;5.850;2023-05-11T17:21:09;101204.66;;;16.59;81.43
51603;BME280;37954;51.980;5.850;2023-05-11T17:25:21;101211.22;;;16.63;81.56
51603;BME280;37954;51.980;5.850;2023-05-11T17:29:33;101203.84;;;16.58;81.34
51603;BME280;37954;51.980;5.850;2023-05-11T17:33:44;101218.53;;;16.62;81.12
51603;BME280;37954;51.980;5.850;2023-05-11T17:37:56;101210.84;;;16.54;81.31
51603;BME280;37954;51.980;5.850;2023-05-11T17:42:08;101222.50;;;16.55;82.26
51603;BME280;37954;51.980;5.850;2023-05-11T17:46:22;101221.19;;;16.57;82.21
51603;BME280;37954;51.980;5.850;2023-05-11T17:50:35;101224.16;;;16.56;82.32
51603;BME280;37954;51.980;5.850;2023-05-11T17:54:47;101210.44;;;16.46;82.36
51603;BME280;37954;51.980;5.850;2023-05-11T17:58:58;101224.88;;;16.51;82.46
51603;BME280;37954;51.980;5.850;2023-05-11T18:03:10;101225.34;;;16.43;82.51
51603;BME280;37954;51.980;5.850;2023-05-11T18:07:22;101239.16;;;16.42;82.82
51603;BME280;37954;51.980;5.850;2023-05-11T18:11:34;101225.66;;;16.30;83.19
51603;BME280;37954;51.980;5.850;2023-05-11T18:15:46;101230.28;;;16.29;83.50
51603;BME280;37954;51.980;5.850;2023-05-11T18:19:58;101222.09;;;16.24;83.64
51603;BME280;37954;51.980;5.850;2023-05-11T18:24:09;101227.31;;;16.31;84.17
51603;BME280;37954;51.980;5.850;2023-05-11T18:28:23;101236.50;;;16.30;84.32
51603;BME280;37954;51.980;5.850;2023-05-11T18:32:36;101249.34;;;16.34;84.46
51603;BME280;37954;51.980;5.850;2023-05-11T18:36:48;101238.41;;;16.29;84.55
51603;BME280;37954;51.980;5.850;2023-05-11T18:41:03;101250.84;;;16.25;84.60
51603;BME280;37954;51.980;5.850;2023-05-11T18:45:15;101258.88;;;16.20;84.77
51603;BME280;37954;51.980;5.850;2023-05-11T18:49:28;101251.91;;;16.08;85.17
51603;BME280;37954;51.980;5.850;2023-05-11T18:53:39;101257.34;;;16.08;85.35
51603;BME280;37954;51.980;5.850;2023-05-11T18:57:51;101254.78;;;16.01;85.42
51603;BME280;37954;51.980;5.850;2023-05-11T19:02:03;101258.31;;;16.01;85.63
51603;BME280;37954;51.980;5.850;2023-05-11T19:06:15;101257.66;;;15.94;85.75
51603;BME280;37954;51.980;5.850;2023-05-11T19:10:27;101264.41;;;15.92;85.92
51603;BME280;37954;51.980;5.850;2023-05-11T19:14:38;101279.59;;;15.93;86.16
51603;BME280;37954;51.980;5.850;2023-05-11T19:18:50;101246.97;;;15.71;86.36
51603;BME280;37954;51.980;5.850;2023-05-11T19:23:02;101264.94;;;15.77;86.50
51603;BME280;37954;51.980;5.850;2023-05-11T19:27:14;101279.31;;;15.78;86.61
51603;BME280;37954;51.980;5.850;2023-05-11T19:31:26;101296.16;;;15.80;86.90
51603;BME280;37954;51.980;5.850;2023-05-11T19:35:41;101283.16;;;15.65;87.13
51603;BME280;37954;51.980;5.850;2023-05-11T19:39:53;101291.53;;;15.63;87.20
51603;BME280;37954;51.980;5.850;2023-05-11T19:44:21;101295.06;;;15.64;87.66
51603;BME280;37954;51.980;5.850;2023-05-11T19:48:33;101284.50;;;15.51;87.84
51603;BME280;37954;51.980;5.850;2023-05-11T19:52:45;101286.13;;;15.52;88.19
51603;BME280;37954;51.980;5.850;2023-05-11T19:56:56;101318.38;;;15.65;88.25
51603;BME280;37954;51.980;5.850;2023-05-11T20:01:10;101309.59;;;15.58;88.80
51603;BME280;37954;51.980;5.850;2023-05-11T20:05:21;101315.25;;;15.56;88.77
51603;BME280;37954;51.980;5.850;2023-05-11T20:09:33;101332.06;;;15.58;89.20
51603;BME280;37954;51.980;5.850;2023-05-11T20:13:45;101317.13;;;15.44;89.46
51603;BME280;37954;51.980;5.850;2023-05-11T20:17:58;101329.94;;;15.49;89.52
51603;BME280;37954;51.980;5.850;2023-05-11T20:22:10;101324.94;;;15.41;89.48
51603;BME280;37954;51.980;5.850;2023-05-11T20:26:22;101324.47;;;15.32;89.25
51603;BME280;37954;51.980;5.850;2023-05-11T20:30:35;101324.81;;;15.24;89.13
51603;BME280;37954;51.980;5.850;2023-05-11T20:34:47;101328.34;;;15.24;89.02
51603;BME280;37954;51.980;5.850;2023-05-11T20:38:58;101305.00;;;15.07;89.11
51603;BME280;37954;51.980;5.850;2023-05-11T20:43:10;101319.34;;;15.07;88.55
51603;BME280;37954;51.980;5.850;2023-05-11T20:47:25;101318.78;;;15.05;88.38
51603;BME280;37954;51.980;5.850;2023-05-11T20:51:36;101318.66;;;15.00;88.49
51603;BME280;37954;51.980;5.850;2023-05-11T20:55:48;101329.25;;;15.02;88.50
51603;BME280;37954;51.980;5.850;2023-05-11T21:00:01;101318.09;;;14.98;88.48
51603;BME280;37954;51.980;5.850;2023-05-11T21:04:15;101326.66;;;14.95;88.23
51603;BME280;37954;51.980;5.850;2023-05-11T21:08:27;101311.88;;;14.86;88.74
51603;BME280;37954;51.980;5.850;2023-05-11T21:12:40;101333.72;;;14.96;88.44
51603;BME280;37954;51.980;5.850;2023-05-11T21:16:51;101320.69;;;14.81;88.51
51603;BME280;37954;51.980;5.850;2023-05-11T21:21:03;101314.34;;;14.76;88.76
51603;BME280;37954;51.980;5.850;2023-05-11T21:25:15;101324.56;;;14.74;89.17
51603;BME280;37954;51.980;5.850;2023-05-11T21:29:26;101328.69;;;14.76;89.17
51603;BME280;37954;51.980;5.850;2023-05-11T21:33:38;101319.28;;;14.67;89.08
51603;BME280;37954;51.980;5.850;2023-05-11T21:37:49;101320.94;;;14.56;88.42
51603;BME280;37954;51.980;5.850;2023-05-11T21:42:01;101321.44;;;14.53;88.24
51603;BME280;37954;51.980;5.850;2023-05-11T21:46:13;101321.16;;;14.43;87.96
51603;BME280;37954;51.980;5.850;2023-05-11T21:50:25;101323.88;;;14.43;87.67
51603;BME280;37954;51.980;5.850;2023-05-11T21:54:37;101318.47;;;14.43;87.98
51603;BME280;37954;51.980;5.850;2023-05-11T21:58:48;101326.56;;;14.43;87.58
51603;BME280;37954;51.980;5.850;2023-05-11T22:03:00;101332.22;;;14.42;87.88
51603;BME280;37954;51.980;5.850;2023-05-11T22:07:13;101330.94;;;14.44;87.96
51603;BME280;37954;51.980;5.850;2023-05-11T22:11:24;101332.81;;;14.44;88.01
51603;BME280;37954;51.980;5.850;2023-05-11T22:15:36;101315.88;;;14.37;87.83
51603;BME280;37954;51.980;5.850;2023-05-11T22:19:48;101323.47;;;14.40;88.08
51603;BME280;37954;51.980;5.850;2023-05-11T22:24:00;101321.59;;;14.28;87.87
51603;BME280;37954;51.980;5.850;2023-05-11T22:28:11;101324.75;;;14.25;87.58
51603;BME280;37954;51.980;5.850;2023-05-11T22:32:23;101322.28;;;14.24;87.60
51603;BME280;37954;51.980;5.850;2023-05-11T22:36:35;101314.53;;;14.16;87.77
51603;BME280;37954;51.980;5.850;2023-05-11T22:40:47;101319.00;;;14.10;87.90
51603;BME280;37954;51.980;5.850;2023-05-11T22:44:58;101316.16;;;14.05;87.94